sensor_id;sensor_type;location;lat;lon;timestamp;temperature;humidity
26707;DHT22;14319;49.422;10.934;2023-05-14T00:01:48;10.20;89.90
26707;DHT22;14319;49.422;10.934;2023-05-14T00:03:51;10.20;89.00
26707;DHT22;14319;49.422;10.934;2023-05-14T00:05:51;10.20;89.00
26707;DHT22;14319;49.422;10.934;2023-05-14T00:07:52;10.10;89.10
26707;DHT22;14319;49.422;10.934;2023-05-14T00:09:52;10.00;88.90
26707;DHT22;14319;49.422;10.934;2023-05-14T00:11:53;9.80;88.90
26707;DHT22;14319;49.422;10.934;2023-05-14T00:13:53;9.80;89.70
26707;DHT22;14319;49.422;10.934;2023-05-14T00:15:54;9.90;89.80
26707;DHT22;14319;49.422;10.934;2023-05-14T00:17:55;9.90;89.00
26707;DHT22;14319;49.422;10.934;2023-05-14T00:19:55;10.00;88.80
26707;DHT22;14319;49.422;10.934;2023-05-14T00:21:56;10.10;88.80
26707;DHT22;14319;49.422;10.934;2023-05-14T00:23:56;10.20;87.90
26707;DHT22;14319;49.422;10.934;2023-05-14T00:25:57;10.20;87.90
26707;DHT22;14319;49.422;10.934;2023-05-14T00:27:57;10.30;87.70
26707;DHT22;14319;49.422;10.934;2023-05-14T00:29:58;10.40;87.30
26707;DHT22;14319;49.422;10.934;2023-05-14T00:31:59;10.30;86.50
26707;DHT22;14319;49.422;10.934;2023-05-14T00:33:59;10.40;87.30
26707;DHT22;14319;49.422;10.934;2023-05-14T00:36:00;10.20;86.20
26707;DHT22;14319;49.422;10.934;2023-05-14T00:38:01;10.10;86.40
26707;DHT22;14319;49.422;10.934;2023-05-14T00:40:03;10.00;87.50
26707;DHT22;14319;49.422;10.934;2023-05-14T00:42:06;10.00;87.60
26707;DHT22;14319;49.422;10.934;2023-05-14T00:44:06;10.10;87.20
26707;DHT22;14319;49.422;10.934;2023-05-14T00:46:07;10.10;87.00
26707;DHT22;14319;49.422;10.934;2023-05-14T00:48:08;10.10;86.20
26707;DHT22;14319;49.422;10.934;2023-05-14T00:50:11;10.10;86.30
26707;DHT22;14319;49.422;10.934;2023-05-14T00:52:13;10.00;86.30
26707;DHT22;14319;49.422;10.934;2023-05-14T00:54:15;10.00;86.40
26707;DHT22;14319;49.422;10.934;2023-05-14T00:56:16;10.00;86.30
26707;DHT22;14319;49.422;10.934;2023-05-14T00:58:18;10.00;86.20
26707;DHT22;14319;49.422;10.934;2023-05-14T01:00:21;10.00;86.20
26707;DHT22;14319;49.422;10.934;2023-05-14T01:02:22;9.70;87.40
26707;DHT22;14319;49.422;10.934;2023-05-14T01:04:23;9.60;87.30
26707;DHT22;14319;49.422;10.934;2023-05-14T01:07:05;9.50;87.00
26707;DHT22;14319;49.422;10.934;2023-05-14T01:09:17;9.10;89.40
26707;DHT22;14319;49.422;10.934;2023-05-14T01:11:32;8.90;90.90
26707;DHT22;14319;49.422;10.934;2023-05-14T01:15:44;8.90;91.90
26707;DHT22;14319;49.422;10.934;2023-05-14T01:17:58;9.10;91.20
26707;DHT22;14319;49.422;10.934;2023-05-14T01:19:59;9.30;90.60
26707;DHT22;14319;49.422;10.934;2023-05-14T01:22:00;9.50;89.80
26707;DHT22;14319;49.422;10.934;2023-05-14T01:24:00;9.50;89.00
26707;DHT22;14319;49.422;10.934;2023-05-14T01:26:01;9.70;88.60
26707;DHT22;14319;49.422;10.934;2023-05-14T01:28:15;9.80;88.50
26707;DHT22;14319;49.422;10.934;2023-05-14T01:30:35;9.90;88.40
26707;DHT22;14319;49.422;10.934;2023-05-14T01:32:38;9.90;88.50
26707;DHT22;14319;49.422;10.934;2023-05-14T01:34:40;10.00;88.60
26707;DHT22;14319;49.422;10.934;2023-05-14T01:36:42;9.90;88.80
26707;DHT22;14319;49.422;10.934;2023-05-14T01:38:43;9.80;89.00
26707;DHT22;14319;49.422;10.934;2023-05-14T01:40:48;9.70;89.50
26707;DHT22;14319;49.422;10.934;2023-05-14T01:42:50;9.60;90.30
26707;DHT22;14319;49.422;10.934;2023-05-14T01:44:51;9.60;88.40
26707;DHT22;14319;49.422;10.934;2023-05-14T01:46:52;9.30;90.00
26707;DHT22;14319;49.422;10.934;2023-05-14T01:48:52;9.50;89.70
26707;DHT22;14319;49.422;10.934;2023-05-14T01:50:53;9.60;90.10
26707;DHT22;14319;49.422;10.934;2023-05-14T01:52:53;9.70;89.30
26707;DHT22;14319;49.422;10.934;2023-05-14T01:54:55;9.70;89.70
26707;DHT22;14319;49.422;10.934;2023-05-14T01:56:57;9.70;89.20
26707;DHT22;14319;49.422;10.934;2023-05-14T01:58:58;9.70;90.30
26707;DHT22;14319;49.422;10.934;2023-05-14T02:00:59;9.40;90.20
26707;DHT22;14319;49.422;10.934;2023-05-14T02:02:59;9.40;91.00
26707;DHT22;14319;49.422;10.934;2023-05-14T02:05:00;9.60;91.40
26707;DHT22;14319;49.422;10.934;2023-05-14T02:07:00;9.70;91.40
26707;DHT22;14319;49.422;10.934;2023-05-14T02:09:03;9.80;91.10
26707;DHT22;14319;49.422;10.934;2023-05-14T02:11:04;9.80;90.80
26707;DHT22;14319;49.422;10.934;2023-05-14T02:13:05;9.90;91.10
26707;DHT22;14319;49.422;10.934;2023-05-14T02:15:06;10.00;90.70
26707;DHT22;14319;49.422;10.934;2023-05-14T02:17:09;10.10;90.50
26707;DHT22;14319;49.422;10.934;2023-05-14T02:19:10;10.20;90.10
26707;DHT22;14319;49.422;10.934;2023-05-14T02:21:10;10.30;89.60
26707;DHT22;14319;49.422;10.934;2023-05-14T02:23:11;10.30;89.00
26707;DHT22;14319;49.422;10.934;2023-05-14T02:25:12;10.40;88.50
26707;DHT22;14319;49.422;10.934;2023-05-14T02:27:12;10.30;87.40
26707;DHT22;14319;49.422;10.934;2023-05-14T02:29:13;9.90;88.20
26707;DHT22;14319;49.422;10.934;2023-05-14T02:31:13;9.70;89.50
26707;DHT22;14319;49.422;10.934;2023-05-14T02:33:15;9.90;88.90
26707;DHT22;14319;49.422;10.934;2023-05-14T02:35:16;9.90;89.00
26707;DHT22;14319;49.422;10.934;2023-05-14T02:37:16;10.10;88.60
26707;DHT22;14319;49.422;10.934;2023-05-14T02:39:17;10.10;88.60
26707;DHT22;14319;49.422;10.934;2023-05-14T02:41:19;10.20;88.50
26707;DHT22;14319;49.422;10.934;2023-05-14T02:43:20;10.20;88.30
26707;DHT22;14319;49.422;10.934;2023-05-14T02:45:21;10.10;88.30
26707;DHT22;14319;49.422;10.934;2023-05-14T02:47:21;9.90;89.10
26707;DHT22;14319;49.422;10.934;2023-05-14T02:49:22;9.70;90.10
26707;DHT22;14319;49.422;10.934;2023-05-14T02:51:23;9.60;90.40
26707;DHT22;14319;49.422;10.934;2023-05-14T02:53:23;9.50;91.00
26707;DHT22;14319;49.422;10.934;2023-05-14T02:55:24;9.50;91.80
26707;DHT22;14319;49.422;10.934;2023-05-14T02:57:25;9.50;92.20
26707;DHT22;14319;49.422;10.934;2023-05-14T02:59:26;9.60;92.10
26707;DHT22;14319;49.422;10.934;2023-05-14T03:01:27;9.80;92.20
26707;DHT22;14319;49.422;10.934;2023-05-14T03:03:28;9.70;92.20
26707;DHT22;14319;49.422;10.934;2023-05-14T03:05:29;9.70;91.90
26707;DHT22;14319;49.422;10.934;2023-05-14T03:07:30;9.90;92.10
26707;DHT22;14319;49.422;10.934;2023-05-14T03:09:30;9.80;90.90
26707;DHT22;14319;49.422;10.934;2023-05-14T03:11:31;9.60;91.70
26707;DHT22;14319;49.422;10.934;2023-05-14T03:13:31;9.70;91.90
26707;DHT22;14319;49.422;10.934;2023-05-14T03:15:33;9.80;91.30
26707;DHT22;14319;49.422;10.934;2023-05-14T03:17:33;9.80;91.40
26707;DHT22;14319;49.422;10.934;2023-05-14T03:19:34;9.90;91.60
26707;DHT22;14319;49.422;10.934;2023-05-14T03:21:35;10.00;91.90
26707;DHT22;14319;49.422;10.934;2023-05-14T03:23:35;10.10;91.80
26707;DHT22;14319;49.422;10.934;2023-05-14T03:25:36;10.10;91.10
26707;DHT22;14319;49.422;10.934;2023-05-14T03:27:37;10.20;90.30
26707;DHT22;14319;49.422;10.934;2023-05-14T03:29:37;10.10;90.10
26707;DHT22;14319;49.422;10.934;2023-05-14T03:31:38;10.20;90.30
26707;DHT22;14319;49.422;10.934;2023-05-14T03:33:38;10.30;90.00
26707;DHT22;14319;49.422;10.934;2023-05-14T03:35:39;10.30;90.20
26707;DHT22;14319;49.422;10.934;2023-05-14T03:37:40;10.40;89.90
26707;DHT22;14319;49.422;10.934;2023-05-14T03:39:40;10.40;90.00
26707;DHT22;14319;49.422;10.934;2023-05-14T03:41:41;10.50;90.10
26707;DHT22;14319;49.422;10.934;2023-05-14T03:43:41;10.50;90.00
26707;DHT22;14319;49.422;10.934;2023-05-14T03:45:42;10.60;89.60
26707;DHT22;14319;49.422;10.934;2023-05-14T03:47:43;10.70;89.20
26707;DHT22;14319;49.422;10.934;2023-05-14T03:49:43;10.70;88.40
26707;DHT22;14319;49.422;10.934;2023-05-14T03:51:46;10.60;87.80
26707;DHT22;14319;49.422;10.934;2023-05-14T03:53:46;10.70;88.30
26707;DHT22;14319;49.422;10.934;2023-05-14T03:55:47;10.60;88.20
26707;DHT22;14319;49.422;10.934;2023-05-14T03:57:48;10.60;88.50
26707;DHT22;14319;49.422;10.934;2023-05-14T03:59:49;10.60;88.90
26707;DHT22;14319;49.422;10.934;2023-05-14T04:01:49;10.60;88.80
26707;DHT22;14319;49.422;10.934;2023-05-14T04:03:50;10.40;89.40
26707;DHT22;14319;49.422;10.934;2023-05-14T04:05:50;10.50;89.90
26707;DHT22;14319;49.422;10.934;2023-05-14T04:07:51;10.60;89.60
26707;DHT22;14319;49.422;10.934;2023-05-14T04:09:54;10.60;89.70
26707;DHT22;14319;49.422;10.934;2023-05-14T04:11:54;10.50;89.60
26707;DHT22;14319;49.422;10.934;2023-05-14T04:13:55;10.50;90.00
26707;DHT22;14319;49.422;10.934;2023-05-14T04:15:56;10.40;90.50
26707;DHT22;14319;49.422;10.934;2023-05-14T04:17:57;10.40;90.60
26707;DHT22;14319;49.422;10.934;2023-05-14T04:19:58;10.40;90.70
26707;DHT22;14319;49.422;10.934;2023-05-14T04:21:58;10.40;91.10
26707;DHT22;14319;49.422;10.934;2023-05-14T04:23:59;10.50;91.30
26707;DHT22;14319;49.422;10.934;2023-05-14T04:26:00;10.70;91.20
26707;DHT22;14319;49.422;10.934;2023-05-14T04:28:00;10.80;91.00
26707;DHT22;14319;49.422;10.934;2023-05-14T04:30:01;10.50;90.40
26707;DHT22;14319;49.422;10.934;2023-05-14T04:32:02;10.50;91.50
26707;DHT22;14319;49.422;10.934;2023-05-14T04:34:03;10.60;90.80
26707;DHT22;14319;49.422;10.934;2023-05-14T04:36:04;10.50;90.60
26707;DHT22;14319;49.422;10.934;2023-05-14T04:38:05;10.60;90.40
26707;DHT22;14319;49.422;10.934;2023-05-14T04:40:07;10.80;89.70
26707;DHT22;14319;49.422;10.934;2023-05-14T04:42:09;10.90;90.00
26707;DHT22;14319;49.422;10.934;2023-05-14T04:44:11;11.00;89.00
26707;DHT22;14319;49.422;10.934;2023-05-14T04:46:12;10.90;89.00
26707;DHT22;14319;49.422;10.934;2023-05-14T04:48:13;11.00;88.20
26707;DHT22;14319;49.422;10.934;2023-05-14T04:50:13;10.90;88.10
26707;DHT22;14319;49.422;10.934;2023-05-14T04:52:14;10.90;88.30
26707;DHT22;14319;49.422;10.934;2023-05-14T04:54:15;11.00;88.70
26707;DHT22;14319;49.422;10.934;2023-05-14T04:56:15;10.90;87.80
26707;DHT22;14319;49.422;10.934;2023-05-14T04:58:16;10.80;89.40
26707;DHT22;14319;49.422;10.934;2023-05-14T05:00:16;10.90;88.80
26707;DHT22;14319;49.422;10.934;2023-05-14T05:02:17;10.70;89.60
26707;DHT22;14319;49.422;10.934;2023-05-14T05:04:18;10.70;89.50
26707;DHT22;14319;49.422;10.934;2023-05-14T05:06:18;10.40;90.50
26707;DHT22;14319;49.422;10.934;2023-05-14T05:08:19;10.30;90.70
26707;DHT22;14319;49.422;10.934;2023-05-14T05:10:20;10.00;92.20
26707;DHT22;14319;49.422;10.934;2023-05-14T05:12:20;9.80;93.30
26707;DHT22;14319;49.422;10.934;2023-05-14T05:14:21;9.60;94.40
26707;DHT22;14319;49.422;10.934;2023-05-14T05:16:21;9.50;95.60
26707;DHT22;14319;49.422;10.934;2023-05-14T05:18:22;9.50;96.90
26707;DHT22;14319;49.422;10.934;2023-05-14T05:20:22;9.60;96.10
26707;DHT22;14319;49.422;10.934;2023-05-14T05:22:24;9.60;96.20
26707;DHT22;14319;49.422;10.934;2023-05-14T05:24:25;9.60;97.20
26707;DHT22;14319;49.422;10.934;2023-05-14T05:26:25;9.70;96.80
26707;DHT22;14319;49.422;10.934;2023-05-14T05:28:27;9.80;97.00
26707;DHT22;14319;49.422;10.934;2023-05-14T05:30:28;9.80;96.30
26707;DHT22;14319;49.422;10.934;2023-05-14T05:32:29;9.80;97.40
26707;DHT22;14319;49.422;10.934;2023-05-14T05:34:30;10.10;96.30
26707;DHT22;14319;49.422;10.934;2023-05-14T05:36:31;10.20;94.30
26707;DHT22;14319;49.422;10.934;2023-05-14T05:38:31;10.50;92.50
26707;DHT22;14319;49.422;10.934;2023-05-14T05:40:32;10.60;91.90
26707;DHT22;14319;49.422;10.934;2023-05-14T05:42:33;10.80;91.20
26707;DHT22;14319;49.422;10.934;2023-05-14T05:44:33;10.90;89.70
26707;DHT22;14319;49.422;10.934;2023-05-14T05:46:34;10.90;90.40
26707;DHT22;14319;49.422;10.934;2023-05-14T05:48:35;11.00;90.00
26707;DHT22;14319;49.422;10.934;2023-05-14T05:50:35;11.00;89.50
26707;DHT22;14319;49.422;10.934;2023-05-14T05:52:36;11.10;90.30
26707;DHT22;14319;49.422;10.934;2023-05-14T05:54:37;11.10;90.20
26707;DHT22;14319;49.422;10.934;2023-05-14T05:56:39;11.20;90.30
26707;DHT22;14319;49.422;10.934;2023-05-14T05:58:39;11.20;89.10
26707;DHT22;14319;49.422;10.934;2023-05-14T06:00:40;11.20;90.20
26707;DHT22;14319;49.422;10.934;2023-05-14T06:02:41;11.30;89.30
26707;DHT22;14319;49.422;10.934;2023-05-14T06:04:42;11.40;89.10
26707;DHT22;14319;49.422;10.934;2023-05-14T06:06:43;11.40;88.30
26707;DHT22;14319;49.422;10.934;2023-05-14T06:08:43;11.30;87.90
26707;DHT22;14319;49.422;10.934;2023-05-14T06:10:44;11.40;87.90
26707;DHT22;14319;49.422;10.934;2023-05-14T06:12:45;11.40;87.50
26707;DHT22;14319;49.422;10.934;2023-05-14T06:14:46;11.40;86.80
26707;DHT22;14319;49.422;10.934;2023-05-14T06:16:47;11.50;87.10
26707;DHT22;14319;49.422;10.934;2023-05-14T06:18:47;11.50;87.30
26707;DHT22;14319;49.422;10.934;2023-05-14T06:20:48;11.60;86.70
26707;DHT22;14319;49.422;10.934;2023-05-14T06:22:49;11.70;87.10
26707;DHT22;14319;49.422;10.934;2023-05-14T06:24:49;11.60;85.50
26707;DHT22;14319;49.422;10.934;2023-05-14T06:26:50;11.70;86.40
26707;DHT22;14319;49.422;10.934;2023-05-14T06:28:51;11.80;86.30
26707;DHT22;14319;49.422;10.934;2023-05-14T06:30:51;11.80;87.30
26707;DHT22;14319;49.422;10.934;2023-05-14T06:32:53;11.90;85.90
26707;DHT22;14319;49.422;10.934;2023-05-14T06:34:54;11.90;85.00
26707;DHT22;14319;49.422;10.934;2023-05-14T06:36:54;11.90;85.10
26707;DHT22;14319;49.422;10.934;2023-05-14T06:38:55;11.90;84.80
26707;DHT22;14319;49.422;10.934;2023-05-14T06:40:55;12.00;85.60
26707;DHT22;14319;49.422;10.934;2023-05-14T06:42:56;12.00;86.30
26707;DHT22;14319;49.422;10.934;2023-05-14T06:44:56;12.00;86.80
26707;DHT22;14319;49.422;10.934;2023-05-14T06:46:57;12.00;85.70
26707;DHT22;14319;49.422;10.934;2023-05-14T06:48:57;12.10;84.60
26707;DHT22;14319;49.422;10.934;2023-05-14T06:50:58;12.20;86.00
26707;DHT22;14319;49.422;10.934;2023-05-14T06:52:58;12.30;84.20
26707;DHT22;14319;49.422;10.934;2023-05-14T06:54:59;12.40;83.50
26707;DHT22;14319;49.422;10.934;2023-05-14T06:57:00;12.30;82.80
26707;DHT22;14319;49.422;10.934;2023-05-14T06:59:01;12.30;84.40
26707;DHT22;14319;49.422;10.934;2023-05-14T07:01:01;12.30;83.60
26707;DHT22;14319;49.422;10.934;2023-05-14T07:03:02;12.40;83.30
26707;DHT22;14319;49.422;10.934;2023-05-14T07:05:02;12.60;81.90
26707;DHT22;14319;49.422;10.934;2023-05-14T07:07:03;12.60;82.50
26707;DHT22;14319;49.422;10.934;2023-05-14T07:09:05;12.70;81.30
26707;DHT22;14319;49.422;10.934;2023-05-14T07:11:06;12.80;81.40
26707;DHT22;14319;49.422;10.934;2023-05-14T07:13:07;12.80;80.80
26707;DHT22;14319;49.422;10.934;2023-05-14T07:15:08;13.00;81.80
26707;DHT22;14319;49.422;10.934;2023-05-14T07:17:08;13.10;80.60
26707;DHT22;14319;49.422;10.934;2023-05-14T07:19:09;13.10;79.70
26707;DHT22;14319;49.422;10.934;2023-05-14T07:21:10;13.30;80.50
26707;DHT22;14319;49.422;10.934;2023-05-14T07:23:10;13.40;79.50
26707;DHT22;14319;49.422;10.934;2023-05-14T07:25:11;13.40;79.10
26707;DHT22;14319;49.422;10.934;2023-05-14T07:27:12;13.50;79.40
26707;DHT22;14319;49.422;10.934;2023-05-14T07:29:12;13.60;82.00
26707;DHT22;14319;49.422;10.934;2023-05-14T07:31:13;13.60;79.50
26707;DHT22;14319;49.422;10.934;2023-05-14T07:33:13;13.60;79.90
26707;DHT22;14319;49.422;10.934;2023-05-14T07:35:14;13.60;80.40
26707;DHT22;14319;49.422;10.934;2023-05-14T07:37:15;13.60;81.50
26707;DHT22;14319;49.422;10.934;2023-05-14T07:39:15;13.50;80.20
26707;DHT22;14319;49.422;10.934;2023-05-14T07:41:16;13.60;82.30
26707;DHT22;14319;49.422;10.934;2023-05-14T07:43:16;13.60;79.50
26707;DHT22;14319;49.422;10.934;2023-05-14T07:45:17;13.70;80.20
26707;DHT22;14319;49.422;10.934;2023-05-14T07:47:18;13.70;79.60
26707;DHT22;14319;49.422;10.934;2023-05-14T07:49:18;13.90;79.50
26707;DHT22;14319;49.422;10.934;2023-05-14T07:51:19;14.00;78.60
26707;DHT22;14319;49.422;10.934;2023-05-14T07:53:19;13.90;76.30
26707;DHT22;14319;49.422;10.934;2023-05-14T07:55:21;14.00;77.60
26707;DHT22;14319;49.422;10.934;2023-05-14T07:57:22;14.10;79.00
26707;DHT22;14319;49.422;10.934;2023-05-14T07:59:22;14.20;78.10
26707;DHT22;14319;49.422;10.934;2023-05-14T08:01:23;14.30;79.50
26707;DHT22;14319;49.422;10.934;2023-05-14T08:03:23;14.40;76.60
26707;DHT22;14319;49.422;10.934;2023-05-14T08:05:24;14.30;74.60
26707;DHT22;14319;49.422;10.934;2023-05-14T08:07:25;14.40;76.30
26707;DHT22;14319;49.422;10.934;2023-05-14T08:09:28;14.60;75.50
26707;DHT22;14319;49.422;10.934;2023-05-14T08:11:29;14.50;76.40
26707;DHT22;14319;49.422;10.934;2023-05-14T08:13:29;14.50;77.60
26707;DHT22;14319;49.422;10.934;2023-05-14T08:15:30;14.50;75.60
26707;DHT22;14319;49.422;10.934;2023-05-14T08:17:30;14.60;73.90
26707;DHT22;14319;49.422;10.934;2023-05-14T08:19:31;14.70;74.90
26707;DHT22;14319;49.422;10.934;2023-05-14T08:21:32;14.70;75.40
26707;DHT22;14319;49.422;10.934;2023-05-14T08:23:33;14.80;74.10
26707;DHT22;14319;49.422;10.934;2023-05-14T08:25:33;14.70;74.30
26707;DHT22;14319;49.422;10.934;2023-05-14T08:27:34;14.80;75.50
26707;DHT22;14319;49.422;10.934;2023-05-14T08:29:35;14.80;74.50
26707;DHT22;14319;49.422;10.934;2023-05-14T08:31:35;14.80;76.00
26707;DHT22;14319;49.422;10.934;2023-05-14T08:33:36;14.70;75.90
26707;DHT22;14319;49.422;10.934;2023-05-14T08:35:36;14.70;74.70
26707;DHT22;14319;49.422;10.934;2023-05-14T08:37:37;14.60;75.50
26707;DHT22;14319;49.422;10.934;2023-05-14T08:39:38;14.70;74.20
26707;DHT22;14319;49.422;10.934;2023-05-14T08:41:39;14.60;75.20
26707;DHT22;14319;49.422;10.934;2023-05-14T08:45:49;14.60;75.80
26707;DHT22;14319;49.422;10.934;2023-05-14T08:47:54;14.60;73.90
26707;DHT22;14319;49.422;10.934;2023-05-14T08:50:03;14.50;75.60
26707;DHT22;14319;49.422;10.934;2023-05-14T08:52:05;14.50;75.90
26707;DHT22;14319;49.422;10.934;2023-05-14T08:54:05;14.50;75.90
26707;DHT22;14319;49.422;10.934;2023-05-14T08:56:07;14.50;76.40
26707;DHT22;14319;49.422;10.934;2023-05-14T08:58:08;14.60;76.10
26707;DHT22;14319;49.422;10.934;2023-05-14T09:00:09;14.70;75.30
26707;DHT22;14319;49.422;10.934;2023-05-14T09:02:14;14.70;74.50
26707;DHT22;14319;49.422;10.934;2023-05-14T09:04:19;14.90;73.80
26707;DHT22;14319;49.422;10.934;2023-05-14T09:06:20;15.00;73.10
26707;DHT22;14319;49.422;10.934;2023-05-14T09:08:22;15.00;75.00
26707;DHT22;14319;49.422;10.934;2023-05-14T09:10:22;15.00;74.50
26707;DHT22;14319;49.422;10.934;2023-05-14T09:12:23;15.10;74.10
26707;DHT22;14319;49.422;10.934;2023-05-14T09:14:23;15.10;74.10
26707;DHT22;14319;49.422;10.934;2023-05-14T09:16:24;15.10;74.30
26707;DHT22;14319;49.422;10.934;2023-05-14T09:18:26;15.10;72.80
26707;DHT22;14319;49.422;10.934;2023-05-14T09:20:26;14.70;75.40
26707;DHT22;14319;49.422;10.934;2023-05-14T09:22:28;14.60;76.50
26707;DHT22;14319;49.422;10.934;2023-05-14T09:24:31;14.70;75.20
26707;DHT22;14319;49.422;10.934;2023-05-14T09:26:33;14.80;73.10
26707;DHT22;14319;49.422;10.934;2023-05-14T09:28:34;14.80;73.00
26707;DHT22;14319;49.422;10.934;2023-05-14T09:30:34;14.70;72.70
26707;DHT22;14319;49.422;10.934;2023-05-14T09:32:40;14.60;73.70
26707;DHT22;14319;49.422;10.934;2023-05-14T09:34:43;14.60;74.10
26707;DHT22;14319;49.422;10.934;2023-05-14T09:36:43;14.60;73.70
26707;DHT22;14319;49.422;10.934;2023-05-14T09:38:44;14.60;75.00
26707;DHT22;14319;49.422;10.934;2023-05-14T09:40:45;14.60;73.00
26707;DHT22;14319;49.422;10.934;2023-05-14T09:42:46;14.60;75.10
26707;DHT22;14319;49.422;10.934;2023-05-14T09:44:48;14.70;72.90
26707;DHT22;14319;49.422;10.934;2023-05-14T09:46:49;14.70;73.80
26707;DHT22;14319;49.422;10.934;2023-05-14T09:48:50;14.70;74.00
26707;DHT22;14319;49.422;10.934;2023-05-14T09:50:51;14.60;75.00
26707;DHT22;14319;49.422;10.934;2023-05-14T09:52:54;14.80;73.00
26707;DHT22;14319;49.422;10.934;2023-05-14T09:54:55;14.50;75.70
26707;DHT22;14319;49.422;10.934;2023-05-14T09:56:55;14.70;74.80
26707;DHT22;14319;49.422;10.934;2023-05-14T09:58:56;14.60;74.90
26707;DHT22;14319;49.422;10.934;2023-05-14T10:00:57;14.80;73.50
26707;DHT22;14319;49.422;10.934;2023-05-14T10:02:58;14.80;73.60
26707;DHT22;14319;49.422;10.934;2023-05-14T10:05:03;14.80;73.70
26707;DHT22;14319;49.422;10.934;2023-05-14T10:07:04;14.90;74.50
26707;DHT22;14319;49.422;10.934;2023-05-14T10:09:11;15.00;74.20
26707;DHT22;14319;49.422;10.934;2023-05-14T10:11:19;15.00;75.30
26707;DHT22;14319;49.422;10.934;2023-05-14T10:13:30;15.30;71.70
26707;DHT22;14319;49.422;10.934;2023-05-14T10:16:18;15.40;71.20
26707;DHT22;14319;49.422;10.934;2023-05-14T10:18:00;15.50;69.80
26707;DHT22;14319;49.422;10.934;2023-05-14T10:20:03;15.10;69.70
26707;DHT22;14319;49.422;10.934;2023-05-14T10:22:06;15.00;71.50
26707;DHT22;14319;49.422;10.934;2023-05-14T10:24:11;15.30;71.40
26707;DHT22;14319;49.422;10.934;2023-05-14T10:26:12;15.50;70.90
26707;DHT22;14319;49.422;10.934;2023-05-14T10:28:13;15.40;73.90
26707;DHT22;14319;49.422;10.934;2023-05-14T10:30:14;15.20;75.50
26707;DHT22;14319;49.422;10.934;2023-05-14T10:32:14;15.00;75.00
26707;DHT22;14319;49.422;10.934;2023-05-14T10:34:39;15.20;75.30
26707;DHT22;14319;49.422;10.934;2023-05-14T10:36:40;15.10;74.40
26707;DHT22;14319;49.422;10.934;2023-05-14T10:38:41;15.00;71.10
26707;DHT22;14319;49.422;10.934;2023-05-14T10:40:42;14.60;73.60
26707;DHT22;14319;49.422;10.934;2023-05-14T10:42:43;14.80;73.60
26707;DHT22;14319;49.422;10.934;2023-05-14T10:46:51;15.10;71.00
26707;DHT22;14319;49.422;10.934;2023-05-14T10:48:52;15.00;71.50
26707;DHT22;14319;49.422;10.934;2023-05-14T10:50:52;15.20;72.20
26707;DHT22;14319;49.422;10.934;2023-05-14T10:52:53;15.20;75.80
26707;DHT22;14319;49.422;10.934;2023-05-14T10:56:58;15.50;71.70
26707;DHT22;14319;49.422;10.934;2023-05-14T10:58:59;15.60;71.90
26707;DHT22;14319;49.422;10.934;2023-05-14T11:00:59;15.50;72.20
26707;DHT22;14319;49.422;10.934;2023-05-14T11:03:03;15.50;71.70
26707;DHT22;14319;49.422;10.934;2023-05-14T11:05:12;15.40;70.50
26707;DHT22;14319;49.422;10.934;2023-05-14T11:07:14;15.40;72.20
26707;DHT22;14319;49.422;10.934;2023-05-14T11:09:16;15.50;70.30
26707;DHT22;14319;49.422;10.934;2023-05-14T11:11:17;15.50;72.30
26707;DHT22;14319;49.422;10.934;2023-05-14T11:13:18;15.40;74.20
26707;DHT22;14319;49.422;10.934;2023-05-14T11:15:20;15.60;73.60
26707;DHT22;14319;49.422;10.934;2023-05-14T11:17:21;15.90;71.70
26707;DHT22;14319;49.422;10.934;2023-05-14T11:19:22;15.90;71.70
26707;DHT22;14319;49.422;10.934;2023-05-14T11:21:22;16.00;68.60
26707;DHT22;14319;49.422;10.934;2023-05-14T11:23:23;16.00;69.90
26707;DHT22;14319;49.422;10.934;2023-05-14T11:25:27;15.80;72.20
26707;DHT22;14319;49.422;10.934;2023-05-14T11:27:28;15.30;69.90
26707;DHT22;14319;49.422;10.934;2023-05-14T11:29:29;15.20;70.90
26707;DHT22;14319;49.422;10.934;2023-05-14T11:31:29;15.50;71.60
26707;DHT22;14319;49.422;10.934;2023-05-14T11:33:30;15.80;69.70
26707;DHT22;14319;49.422;10.934;2023-05-14T11:35:31;16.10;71.30
26707;DHT22;14319;49.422;10.934;2023-05-14T11:37:31;16.40;68.20
26707;DHT22;14319;49.422;10.934;2023-05-14T11:39:32;15.80;70.80
26707;DHT22;14319;49.422;10.934;2023-05-14T11:41:33;16.00;71.40
26707;DHT22;14319;49.422;10.934;2023-05-14T11:43:35;15.90;70.20
26707;DHT22;14319;49.422;10.934;2023-05-14T11:45:35;16.10;68.50
26707;DHT22;14319;49.422;10.934;2023-05-14T11:47:37;16.40;70.10
26707;DHT22;14319;49.422;10.934;2023-05-14T11:49:37;16.00;71.00
26707;DHT22;14319;49.422;10.934;2023-05-14T11:51:38;16.00;73.00
26707;DHT22;14319;49.422;10.934;2023-05-14T11:53:39;16.20;73.50
26707;DHT22;14319;49.422;10.934;2023-05-14T11:55:39;16.50;69.80
26707;DHT22;14319;49.422;10.934;2023-05-14T11:57:40;16.60;69.30
26707;DHT22;14319;49.422;10.934;2023-05-14T11:59:41;16.80;69.00
26707;DHT22;14319;49.422;10.934;2023-05-14T12:01:46;16.60;68.70
26707;DHT22;14319;49.422;10.934;2023-05-14T12:03:47;16.00;72.80
26707;DHT22;14319;49.422;10.934;2023-05-14T12:05:56;15.80;72.50
26707;DHT22;14319;49.422;10.934;2023-05-14T12:07:57;16.00;71.30
26707;DHT22;14319;49.422;10.934;2023-05-14T12:10:00;16.10;73.80
26707;DHT22;14319;49.422;10.934;2023-05-14T12:12:07;16.40;72.50
26707;DHT22;14319;49.422;10.934;2023-05-14T12:14:14;15.90;70.30
26707;DHT22;14319;49.422;10.934;2023-05-14T12:16:15;15.90;72.10
26707;DHT22;14319;49.422;10.934;2023-05-14T12:18:17;15.90;72.80
26707;DHT22;14319;49.422;10.934;2023-05-14T12:20:17;16.10;71.50
26707;DHT22;14319;49.422;10.934;2023-05-14T12:22:22;16.00;70.00
26707;DHT22;14319;49.422;10.934;2023-05-14T12:24:24;15.80;71.90
26707;DHT22;14319;49.422;10.934;2023-05-14T12:26:25;15.90;71.90
26707;DHT22;14319;49.422;10.934;2023-05-14T12:28:26;16.30;71.10
26707;DHT22;14319;49.422;10.934;2023-05-14T12:30:36;16.60;68.60
26707;DHT22;14319;49.422;10.934;2023-05-14T12:32:37;16.70;68.90
26707;DHT22;14319;49.422;10.934;2023-05-14T12:34:40;16.70;68.60
26707;DHT22;14319;49.422;10.934;2023-05-14T12:36:41;16.70;68.90
26707;DHT22;14319;49.422;10.934;2023-05-14T12:38:42;16.00;69.20
26707;DHT22;14319;49.422;10.934;2023-05-14T12:40:43;15.70;72.30
26707;DHT22;14319;49.422;10.934;2023-05-14T12:42:43;15.80;72.20
26707;DHT22;14319;49.422;10.934;2023-05-14T12:44:44;15.50;70.70
26707;DHT22;14319;49.422;10.934;2023-05-14T12:46:45;15.50;71.80